Time;durP1;ratioP1;P1;durP2;ratioP2;P2;SDS_P1;SDS_P2;PMS_P1;PMS_P2;Temp;Humidity;BMP_temperature;BMP_pressure;BME280_temperature;BME280_humidity;BME280_pressure;Samples;Min_cycle;Max_cycle;Signal;HPM_P1;HPM_P2
2021/05/06 00:02:31;;;;;;;;;;;;;;;18.48;67.33;100042.13;4996400;28;1475;-55
2021/05/06 00:32:22;;;;;;;;;;;;;;;18.42;67.60;100029.34;4995864;28;837;-54
2021/05/06 00:34:48;;;;;;;;;;;;;;;18.44;67.54;100040.72;4995564;28;1072;-55
2021/05/06 00:37:16;;;;;;;;;;;;;;;18.44;67.52;100044.28;4995913;28;1105;-54
2021/05/06 00:39:46;;;;;;;;;;;;;;;18.43;67.77;100039.06;4995597;28;1068;-54
2021/05/06 00:42:26;;;;;;;;;;;;;;;18.44;67.97;100038.06;4994897;28;1012;-54
2021/05/06 00:45:38;;;;;;;;;;;;;;;18.43;67.66;100053.28;4995710;28;1039;-55
2021/05/06 00:59:26;;;;;;;;;;;;;;;18.43;67.37;100064.00;4995354;28;888;-55
2021/05/06 01:04:40;;;;;;;;;;;;;;;18.43;67.40;100064.00;4989276;28;1349;-55
2021/05/06 01:10:02;;;;;;;;;;;;;;;18.46;67.83;100070.88;4991718;28;1865;-55
2021/05/06 01:12:28;;;;;;;;;;;;;;;18.45;67.47;100071.88;4995109;28;1220;-54
2021/05/06 01:14:55;;;;;;;;;;;;;;;18.45;68.09;100067.34;4995456;28;1008;-55
2021/05/06 01:17:21;;;;;;;;;;;;;;;18.44;67.51;100070.19;4995381;28;1039;-54
2021/05/06 01:19:47;;;;;;;;;;;;;;;18.44;67.45;100064.81;4995382;28;999;-55
2021/05/06 01:22:14;;;;;;;;;;;;;;;18.43;67.59;100058.63;4995117;28;1087;-54
2021/05/06 01:24:40;;;;;;;;;;;;;;;18.44;67.61;100054.97;4995426;28;1054;-54
2021/05/06 01:27:10;;;;;;;;;;;;;;;18.44;67.62;100064.81;4995355;28;1973;-54
2021/05/06 01:29:41;;;;;;;;;;;;;;;18.45;67.61;100066.53;4995343;28;1046;-54
2021/05/06 01:32:17;;;;;;;;;;;;;;;18.44;67.51;100065.69;4995307;28;979;-54
2021/05/06 01:34:45;;;;;;;;;;;;;;;18.44;67.67;100059.47;4994926;28;1095;-54
2021/05/06 01:37:14;;;;;;;;;;;;;;;18.43;67.71;100069.34;4994948;28;1087;-54
2021/05/06 01:42:26;;;;;;;;;;;;;;;18.43;67.84;100068.50;4994855;28;790;-55
2021/05/06 01:47:38;;;;;;;;;;;;;;;18.42;67.94;100080.19;4974848;28;1980;-55
2021/05/06 01:58:39;;;;;;;;;;;;;;;18.43;67.54;100089.94;4998971;28;635;-54
2021/05/06 02:01:06;;;;;;;;;;;;;;;18.43;67.47;100087.25;5009206;23;2023;-42
2021/05/06 02:03:32;;;;;;;;;;;;;;;18.42;67.73;100094.44;4993895;28;1966;-45
2021/05/06 02:05:58;;;;;;;;;;;;;;;18.40;67.59;100087.53;4997057;28;1191;-45
2021/05/06 02:08:24;;;;;;;;;;;;;;;18.43;67.55;100082.72;4997295;28;1969;-45
2021/05/06 02:10:54;;;;;;;;;;;;;;;18.42;67.77;100093.56;5005751;23;3539;-54
2021/05/06 02:13:20;;;;;;;;;;;;;;;18.41;67.09;100084.72;4978758;28;1163;-54
2021/05/06 02:15:50;;;;;;;;;;;;;;;18.43;67.89;100096.13;4979055;28;984;-54
2021/05/06 02:18:16;;;;;;;;;;;;;;;18.42;67.38;100094.44;4979036;28;1085;-54
2021/05/06 02:20:43;;;;;;;;;;;;;;;18.39;67.62;100108.13;4978961;28;1007;-55
2021/05/06 02:23:09;;;;;;;;;;;;;;;18.44;67.57;100108.53;4978917;28;967;-55
2021/05/06 02:25:35;;;;;;;;;;;;;;;18.42;67.27;100105.16;4978904;28;1097;-54
2021/05/06 02:28:02;;;;;;;;;;;;;;;18.42;67.66;100118.53;4978441;28;1910;-54
2021/05/06 02:30:28;;;;;;;;;;;;;;;18.43;67.47;100112.19;4978791;28;1050;-55
2021/05/06 02:32:54;;;;;;;;;;;;;;;18.43;67.61;100127.41;4978642;28;1074;-54
2021/05/06 02:35:20;;;;;;;;;;;;;;;18.42;67.27;100133.72;4978700;28;980;-54
2021/05/06 02:37:46;;;;;;;;;;;;;;;18.43;67.52;100138.94;4978330;28;1115;-54
2021/05/06 02:40:13;;;;;;;;;;;;;;;18.43;67.52;100140.78;4978594;28;1015;-54
2021/05/06 02:42:39;;;;;;;;;;;;;;;18.41;67.69;100148.97;4978576;28;1012;-54
2021/05/06 02:45:07;;;;;;;;;;;;;;;18.41;67.13;100157.00;4977960;28;1056;-55
2021/05/06 02:47:33;;;;;;;;;;;;;;;18.43;67.67;100160.38;4978397;28;1981;-54
2021/05/06 02:49:59;;;;;;;;;;;;;;;18.43;67.66;100165.72;4978147;28;1048;-55
2021/05/06 02:52:30;;;;;;;;;;;;;;;18.40;67.71;100160.69;4978101;28;1020;-54
2021/05/06 02:55:01;;;;;;;;;;;;;;;18.43;67.47;100160.38;4978189;28;1044;-55
2021/05/06 02:57:36;;;;;;;;;;;;;;;18.43;67.45;100173.75;4978234;28;1035;-55
2021/05/06 03:02:51;;;;;;;;;;;;;;;18.42;67.58;100177.44;4977878;28;1377;-55
2021/05/06 03:05:18;;;;;;;;;;;;;;;18.42;67.79;100192.63;4977149;28;1072;-55
2021/05/06 03:07:49;;;;;;;;;;;;;;;18.42;67.76;100206.88;4978060;28;1906;-54
2021/05/06 03:10:28;;;;;;;;;;;;;;;18.43;67.47;100215.75;4978096;28;1135;-54
2021/05/06 03:13:27;;;;;;;;;;;;;;;18.42;67.47;100211.38;4997524;28;980;-54
2021/05/06 03:24:12;;;;;;;;;;;;;;;18.42;67.84;100238.13;4997224;28;965;-54
2021/05/06 03:26:38;;;;;;;;;;;;;;;18.42;67.68;100249.72;4997062;28;1971;-54
2021/05/06 03:29:07;;;;;;;;;;;;;;;18.41;67.62;100253.38;4997130;28;922;-55
2021/05/06 03:42:46;;;;;;;;;;;;;;;18.43;67.47;100278.16;4975546;28;1181;-54
2021/05/06 04:18:17;;;;;;;;;;;;;;;19.57;64.02;100330.81;4974723;28;1279;-55
2021/05/06 04:26:18;;;;;;;;;;;;;;;20.42;60.89;100342.94;4995974;28;686;-55
2021/05/06 04:37:00;;;;;;;;;;;;;;;21.60;57.11;100367.56;4995723;28;615;-55
2021/05/06 04:39:32;;;;;;;;;;;;;;;20.91;59.42;100360.44;4995915;28;971;-54
2021/05/06 04:42:15;;;;;;;;;;;;;;;20.52;60.61;100369.69;4995820;28;966;-55
2021/05/06 04:45:23;;;;;;;;;;;;;;;20.34;61.73;100382.31;4995824;28;1053;-54
2021/05/06 04:56:18;;;;;;;;;;;;;;;19.94;62.46;100386.28;4995613;28;856;-54
2021/05/06 05:04:30;;;;;;;;;;;;;;;19.58;63.42;100403.09;4974459;28;593;-55
2021/05/06 05:07:04;;;;;;;;;;;;;;;19.50;64.36;100408.34;4986223;28;1993;-55
2021/05/06 05:09:53;;;;;;;;;;;;;;;19.46;64.27;100410.47;4995555;28;1015;-55
2021/05/06 05:12:30;;;;;;;;;;;;;;;19.39;64.69;100417.41;4995080;28;1235;-55
2021/05/06 05:17:36;;;;;;;;;;;;;;;19.40;64.66;100432.50;4995487;28;1007;-55
2021/05/06 05:18:01;;;;;;;;;;;;;;;19.42;64.22;100422.47;4995097;28;1035;-55
2021/05/06 05:20:37;;;;;;;;;;;;;;;19.37;64.75;100435.47;4995477;28;977;-55
2021/05/06 05:25:49;;;;;;;;;;;;;;;19.37;64.76;100443.50;4995128;28;647;-55
2021/05/06 05:28:16;;;;;;;;;;;;;;;19.34;64.96;100459.91;4997293;28;1973;-54
2021/05/06 05:30:42;;;;;;;;;;;;;;;19.32;64.79;100448.50;4999304;28;975;-54
2021/05/06 05:33:11;;;;;;;;;;;;;;;19.30;64.98;100453.16;4999276;28;1015;-54
2021/05/06 05:35:39;;;;;;;;;;;;;;;19.31;64.85;100446.78;4999209;28;1067;-54
2021/05/06 05:38:12;;;;;;;;;;;;;;;19.32;65.12;100464.56;4999143;28;1060;-55
2021/05/06 05:40:43;;;;;;;;;;;;;;;19.29;65.13;100464.84;4998743;28;1087;-55
2021/05/06 05:43:21;;;;;;;;;;;;;;;19.30;64.84;100447.78;4999159;28;939;-55
2021/05/06 05:46:31;;;;;;;;;;;;;;;19.29;65.28;100470.22;4998850;28;1020;-54
2021/05/06 05:54:36;;;;;;;;;;;;;;;19.26;65.13;100465.16;4989820;28;1420;-55
2021/05/06 05:57:06;;;;;;;;;;;;;;;19.25;65.36;100466.97;4998571;28;1024;-55
2021/05/06 05:59:32;;;;;;;;;;;;;;;19.24;65.26;100461.78;4998517;28;1028;-56
2021/05/06 06:01:59;;;;;;;;;;;;;;;19.23;65.33;100454.72;4998391;28;1404;-55
2021/05/06 06:04:25;;;;;;;;;;;;;;;19.24;65.11;100459.09;4998724;28;987;-54
2021/05/06 06:06:51;;;;;;;;;;;;;;;19.25;65.38;100476.84;4998457;28;1976;-54
2021/05/06 06:09:17;;;;;;;;;;;;;;;19.24;65.39;100483.22;4998329;28;1051;-54
2021/05/06 06:11:43;;;;;;;;;;;;;;;19.23;65.46;100465.44;4998113;28;1329;-55
2021/05/06 06:14:09;;;;;;;;;;;;;;;19.24;65.56;100480.53;4998586;28;1042;-55
2021/05/06 06:16:38;;;;;;;;;;;;;;;19.22;65.54;100488.72;4998484;28;1065;-54
2021/05/06 06:19:05;;;;;;;;;;;;;;;19.21;65.55;100492.38;4998122;28;1079;-54
2021/05/06 06:21:34;;;;;;;;;;;;;;;19.22;65.62;100494.09;4998131;28;1008;-54
2021/05/06 06:24:00;;;;;;;;;;;;;;;19.20;65.65;100487.16;4998435;28;1063;-55
2021/05/06 06:26:26;;;;;;;;;;;;;;;19.22;65.68;100502.13;4997986;28;1231;-55
2021/05/06 06:28:55;;;;;;;;;;;;;;;19.20;65.48;100492.50;4998227;28;2030;-54
2021/05/06 06:31:23;;;;;;;;;;;;;;;19.21;65.71;100488.84;4998288;28;1046;-55
2021/05/06 06:33:49;;;;;;;;;;;;;;;19.23;65.88;100505.63;4998147;28;975;-54
2021/05/06 06:36:17;;;;;;;;;;;;;;;19.23;65.62;100511.00;4998062;28;1047;-54
2021/05/06 06:38:43;;;;;;;;;;;;;;;19.25;65.68;100507.19;4997372;28;1142;-55
2021/05/06 06:41:09;;;;;;;;;;;;;;;19.24;66.01;100507.34;4997467;28;1055;-55
2021/05/06 06:43:35;;;;;;;;;;;;;;;19.21;66.00;100508.47;4998019;28;978;-55
2021/05/06 06:46:01;;;;;;;;;;;;;;;19.21;65.96;100496.91;4997924;28;1057;-55
2021/05/06 06:48:27;;;;;;;;;;;;;;;19.23;65.66;100511.00;4997900;28;1910;-55
2021/05/06 06:50:53;;;;;;;;;;;;;;;19.23;66.04;100511.00;4997587;28;1125;-54
2021/05/06 06:53:20;;;;;;;;;;;;;;;19.23;65.93;100522.56;4997722;28;984;-55
2021/05/06 06:55:46;;;;;;;;;;;;;;;19.22;65.83;100514.69;4997729;28;992;-54
2021/05/06 06:58:13;;;;;;;;;;;;;;;19.22;66.11;100534.28;4997672;28;1240;-55
2021/05/06 07:00:39;;;;;;;;;;;;;;;19.21;65.93;100523.69;4997679;28;1073;-54
2021/05/06 07:03:06;;;;;;;;;;;;;;;19.20;65.71;100538.06;4997264;28;1468;-55
2021/05/06 07:05:32;;;;;;;;;;;;;;;19.21;65.76;100545.16;4997237;28;1052;-55
2021/05/06 07:08:10;;;;;;;;;;;;;;;19.21;65.90;100543.31;4997463;28;1981;-55
2021/05/06 07:10:37;;;;;;;;;;;;;;;19.20;66.13;100532.72;4997388;28;1325;-55
2021/05/06 07:13:04;;;;;;;;;;;;;;;19.22;65.91;100546.84;4997438;28;1150;-55
2021/05/06 07:15:30;;;;;;;;;;;;;;;19.23;65.89;100530.59;4997082;28;1207;-55
2021/05/06 07:17:56;;;;;;;;;;;;;;;19.21;66.02;100537.09;4997335;28;983;-54
2021/05/06 07:20:22;;;;;;;;;;;;;;;19.21;66.06;100537.09;4997106;28;1052;-54
2021/05/06 07:22:48;;;;;;;;;;;;;;;19.21;65.87;100537.09;4997016;28;1059;-55
2021/05/06 07:25:14;;;;;;;;;;;;;;;19.22;66.20;100552.22;4997260;28;1065;-55
2021/05/06 07:27:41;;;;;;;;;;;;;;;19.22;66.00;100546.84;4996785;28;1902;-54
2021/05/06 07:30:08;;;;;;;;;;;;;;;19.21;65.95;100555.88;4996821;28;994;-55
2021/05/06 07:32:34;;;;;;;;;;;;;;;19.20;65.96;100548.81;4996785;28;1068;-54
2021/05/06 07:35:00;;;;;;;;;;;;;;;19.20;66.20;100548.81;4997065;28;1046;-55
2021/05/06 07:37:26;;;;;;;;;;;;;;;19.21;66.20;100562.06;4996782;28;1056;-55
2021/05/06 07:39:52;;;;;;;;;;;;;;;19.23;66.32;100561.94;4996987;28;984;-54
2021/05/06 07:42:18;;;;;;;;;;;;;;;19.22;66.06;100552.22;4996615;28;1055;-55
2021/05/06 07:44:45;;;;;;;;;;;;;;;19.23;66.38;100551.22;4996898;28;1031;-55
2021/05/06 07:47:11;;;;;;;;;;;;;;;19.22;66.60;100557.56;4996486;28;1976;-55
2021/05/06 07:49:37;;;;;;;;;;;;;;;19.22;65.97;100563.78;4996493;28;1070;-55
2021/05/06 07:52:04;;;;;;;;;;;;;;;19.24;65.83;100566.31;4996502;28;979;-55
2021/05/06 07:54:30;;;;;;;;;;;;;;;19.25;66.17;100562.63;4996369;28;1082;-55
2021/05/06 07:56:56;;;;;;;;;;;;;;;19.22;65.84;100566.47;4996689;28;939;-55
2021/05/06 07:59:22;;;;;;;;;;;;;;;19.22;66.04;100558.41;4996610;28;983;-55
2021/05/06 08:01:48;;;;;;;;;;;;;;;19.23;66.17;100567.28;4996156;28;1400;-55
2021/05/06 08:04:14;;;;;;;;;;;;;;;19.21;66.05;100566.59;4996555;28;1269;-55
2021/05/06 08:06:40;;;;;;;;;;;;;;;19.23;66.17;100569.97;4996401;28;1910;-54
2021/05/06 08:09:06;;;;;;;;;;;;;;;19.23;66.22;100567.28;4996128;28;1052;-54
2021/05/06 08:11:32;;;;;;;;;;;;;;;19.21;66.05;100561.22;4996081;28;1227;-55
2021/05/06 08:13:58;;;;;;;;;;;;;;;19.24;65.94;100572.53;4996379;28;1026;-55
2021/05/06 08:16:24;;;;;;;;;;;;;;;19.23;65.98;100586.06;4996020;28;1123;-54
2021/05/06 08:18:51;;;;;;;;;;;;;;;19.23;66.21;100586.06;4995898;28;1203;-55
2021/05/06 08:21:17;;;;;;;;;;;;;;;19.22;66.20;100587.91;4996082;28;1071;-55
2021/05/06 08:23:45;;;;;;;;;;;;;;;19.25;65.91;100582.25;4996087;28;1008;-55
2021/05/06 08:26:11;;;;;;;;;;;;;;;19.23;66.26;100586.06;4996155;28;966;-55
2021/05/06 08:28:37;;;;;;;;;;;;;;;19.22;66.30;100587.06;4995564;28;1977;-54
2021/05/06 08:31:03;;;;;;;;;;;;;;;19.24;65.93;100593.13;4995977;28;1023;-55
2021/05/06 08:33:29;;;;;;;;;;;;;;;19.22;66.07;100587.06;4995955;28;978;-55
2021/05/06 08:35:56;;;;;;;;;;;;;;;19.22;66.28;100587.91;4995995;28;1011;-55
2021/05/06 08:38:21;;;;;;;;;;;;;;;19.22;66.14;100592.44;4996385;28;1871;-55
2021/05/06 08:40:50;;;;;;;;;;;;;;;19.21;66.09;100601.44;4995639;28;1052;-55
2021/05/06 08:43:19;;;;;;;;;;;;;;;19.21;66.20;100601.44;4995519;28;1048;-55
2021/05/06 08:45:48;;;;;;;;;;;;;;;19.21;66.46;100614.84;4995599;28;1098;-55
2021/05/06 08:48:15;;;;;;;;;;;;;;;19.21;66.08;100609.47;4995752;28;1971;-54
2021/05/06 08:50:42;;;;;;;;;;;;;;;19.20;66.43;100607.78;4995811;28;995;-55
2021/05/06 08:53:09;;;;;;;;;;;;;;;19.20;66.23;100610.47;4995401;28;1064;-55
2021/05/06 08:55:35;;;;;;;;;;;;;;;19.18;66.26;100615.13;4995463;28;1118;-54
2021/05/06 08:58:01;;;;;;;;;;;;;;;19.20;66.13;100623.84;4995626;28;971;-55
2021/05/06 09:00:27;;;;;;;;;;;;;;;19.21;66.49;100609.47;4995627;28;987;-54
2021/05/06 09:02:53;;;;;;;;;;;;;;;19.21;66.46;100607.63;4994918;28;1464;-55
2021/05/06 09:05:22;;;;;;;;;;;;;;;19.20;66.16;100605.09;4995268;28;1024;-54
2021/05/06 09:07:48;;;;;;;;;;;;;;;19.21;66.15;100606.81;4995523;28;1906;-55
2021/05/06 09:10:32;;;;;;;;;;;;;;;19.19;66.30;100616.81;4995321;28;1020;-54
2021/05/06 09:12:59;;;;;;;;;;;;;;;19.21;66.12;100612.16;4995196;28;1104;-55
2021/05/06 09:15:25;;;;;;;;;;;;;;;19.20;66.03;100607.78;4995509;28;1015;-54
2021/05/06 09:17:53;;;;;;;;;;;;;;;19.21;66.45;100610.31;4995303;28;979;-55
2021/05/06 09:20:20;;;;;;;;;;;;;;;19.20;66.37;100603.28;4995223;28;1039;-55
2021/05/06 09:22:47;;;;;;;;;;;;;;;19.19;66.21;100606.09;4995445;28;1050;-54
2021/05/06 09:25:23;;;;;;;;;;;;;;;19.18;66.31;100609.75;4995131;28;908;-55
2021/05/06 09:27:49;;;;;;;;;;;;;;;19.20;66.28;100619.38;4995382;28;1911;-55
2021/05/06 09:30:17;;;;;;;;;;;;;;;19.19;66.23;100608.78;4995072;28;1023;-55
2021/05/06 09:32:43;;;;;;;;;;;;;;;19.19;66.37;100616.81;4995385;28;983;-55
2021/05/06 09:35:16;;;;;;;;;;;;;;;19.18;66.39;100618.66;4995305;28;1047;-54
2021/05/06 09:37:44;;;;;;;;;;;;;;;19.17;66.30;100614.28;4995086;28;1997;-54
2021/05/06 09:40:10;;;;;;;;;;;;;;;19.19;66.79;100612.28;4995004;28;1094;-55
2021/05/06 09:42:37;;;;;;;;;;;;;;;19.18;66.38;100621.34;4994919;28;1118;-55
2021/05/06 09:45:04;;;;;;;;;;;;;;;19.17;66.54;100624.16;4995341;28;931;-55
2021/05/06 09:47:31;;;;;;;;;;;;;;;19.18;66.51;100625.84;4994899;28;1981;-54
2021/05/06 09:49:57;;;;;;;;;;;;;;;19.18;66.66;100631.19;4995247;28;1050;-54
2021/05/06 09:52:23;;;;;;;;;;;;;;;19.15;66.58;100621.59;4994888;28;1238;-55
2021/05/06 09:54:50;;;;;;;;;;;;;;;19.18;66.39;100631.19;4995150;28;1458;-55
2021/05/06 09:57:24;;;;;;;;;;;;;;;19.14;66.52;100625.28;4994923;28;1060;-54
2021/05/06 09:59:50;;;;;;;;;;;;;;;19.11;66.95;100630.91;4994753;28;1108;-55
2021/05/06 10:02:17;;;;;;;;;;;;;;;19.14;65.85;100635.16;4995067;28;1491;-54
2021/05/06 10:04:45;;;;;;;;;;;;;;;19.14;66.81;100627.09;4995204;28;975;-55
2021/05/06 10:07:13;;;;;;;;;;;;;;;19.14;66.66;100622.63;4995017;28;1914;-54
2021/05/06 10:09:49;;;;;;;;;;;;;;;19.14;66.77;100638.69;4994780;28;1091;-54
2021/05/06 10:12:15;;;;;;;;;;;;;;;19.14;66.69;100624.44;4994579;28;1322;-54
2021/05/06 10:14:41;;;;;;;;;;;;;;;19.14;66.59;100625.28;4997468;28;987;-55
2021/05/06 10:17:07;;;;;;;;;;;;;;;19.11;66.67;100644.31;4998473;28;1034;-55
2021/05/06 10:19:34;;;;;;;;;;;;;;;19.12;66.67;100637.13;4998152;28;1052;-55
2021/05/06 10:22:01;;;;;;;;;;;;;;;19.14;66.81;100651.22;4998552;28;974;-55
2021/05/06 10:24:28;;;;;;;;;;;;;;;19.15;66.77;100644.91;4998315;28;1019;-55
2021/05/06 10:26:54;;;;;;;;;;;;;;;19.17;66.47;100643.75;4998340;28;1971;-55
2021/05/06 10:29:21;;;;;;;;;;;;;;;19.13;66.71;100633.47;4998122;28;1070;-54
2021/05/06 10:31:47;;;;;;;;;;;;;;;19.12;66.69;100637.13;4998301;28;971;-55
2021/05/06 10:34:13;;;;;;;;;;;;;;;19.14;66.35;100651.22;4997827;28;1059;-54
2021/05/06 10:36:40;;;;;;;;;;;;;;;19.15;66.58;100635.00;4998092;28;1070;-54
2021/05/06 10:39:11;;;;;;;;;;;;;;;19.16;66.52;100644.75;4997711;28;1055;-54
2021/05/06 10:41:38;;;;;;;;;;;;;;;19.16;66.60;100660.84;4997613;28;1020;-55
2021/05/06 10:44:05;;;;;;;;;;;;;;;19.16;66.56;100660.84;4997681;28;1024;-54
2021/05/06 10:46:56;;;;;;;;;;;;;;;19.15;66.83;100663.66;4997521;28;1056;-55
2021/05/06 10:49:22;;;;;;;;;;;;;;;19.15;66.76;100660.97;4997616;28;979;-55
2021/05/06 10:51:57;;;;;;;;;;;;;;;19.16;66.96;100659.97;4997888;28;1034;-55
2021/05/06 10:54:28;;;;;;;;;;;;;;;19.17;66.50;100656.31;4997812;28;939;-55
2021/05/06 10:56:54;;;;;;;;;;;;;;;19.16;66.74;100658.16;4997814;28;980;-55
2021/05/06 10:59:20;;;;;;;;;;;;;;;19.14;66.58;100656.59;4997474;28;1056;-55
2021/05/06 11:01:46;;;;;;;;;;;;;;;19.13;66.75;100647.72;4997628;28;1390;-54
2021/05/06 11:04:12;;;;;;;;;;;;;;;19.16;66.53;100649.25;4997741;28;931;-54
2021/05/06 11:06:40;;;;;;;;;;;;;;;19.17;66.55;100661.69;4997271;28;1067;-55
2021/05/06 11:09:39;;;;;;;;;;;;;;;19.16;66.59;100654.63;4997257;28;1906;-55
2021/05/06 11:12:27;;;;;;;;;;;;;;;19.14;66.60;100653.91;4997125;28;1112;-54
2021/05/06 11:15:11;;;;;;;;;;;;;;;19.16;66.65;100651.94;4997184;28;1063;-55
2021/05/06 11:17:41;;;;;;;;;;;;;;;19.16;66.75;100643.91;4997380;28;1019;-54
2021/05/06 11:20:35;;;;;;;;;;;;;;;19.18;66.68;100652.63;4997382;28;988;-54
2021/05/06 11:23:01;;;;;;;;;;;;;;;19.14;66.63;100662.81;4996946;28;1757;-55
2021/05/06 11:25:46;;;;;;;;;;;;;;;19.16;66.65;100654.63;4996515;28;1023;-54
2021/05/06 11:28:27;;;;;;;;;;;;;;;19.15;66.48;100640.38;4997212;28;1902;-54
2021/05/06 11:30:54;;;;;;;;;;;;;;;19.14;66.67;100646.75;4996676;28;2038;-55
2021/05/06 11:33:27;;;;;;;;;;;;;;;19.17;66.69;100650.97;4996995;28;1003;-54
2021/05/06 11:35:53;;;;;;;;;;;;;;;19.20;66.19;100654.22;4996751;28;1091;-55
2021/05/06 11:38:19;;;;;;;;;;;;;;;19.18;66.69;100644.59;4996737;28;1047;-54
2021/05/06 11:40:45;;;;;;;;;;;;;;;19.18;66.39;100648.16;4996683;28;1032;-54
2021/05/06 11:43:20;;;;;;;;;;;;;;;19.19;66.48;100638.25;4996960;28;1003;-54
2021/05/06 11:45:46;;;;;;;;;;;;;;;19.19;66.77;100640.94;4996878;28;1073;-55
2021/05/06 11:48:14;;;;;;;;;;;;;;;19.20;66.52;100634.59;4996795;28;1907;-54
2021/05/06 11:50:42;;;;;;;;;;;;;;;19.21;66.63;100639.81;4996790;28;1050;-55
2021/05/06 11:53:14;;;;;;;;;;;;;;;19.19;66.26;100643.63;4996466;28;1028;-54
2021/05/06 11:55:41;;;;;;;;;;;;;;;19.20;66.61;100635.47;4996682;28;1049;-55
2021/05/06 11:58:09;;;;;;;;;;;;;;;19.20;66.65;100635.47;4996364;28;1020;-55
2021/05/06 12:00:35;;;;;;;;;;;;;;;19.20;66.86;100634.59;4996600;28;1046;-54
2021/05/06 12:03:03;;;;;;;;;;;;;;;19.20;66.44;100643.50;4996523;28;1469;-55
2021/05/06 12:05:48;;;;;;;;;;;;;;;19.20;66.66;100646.19;4996141;28;1114;-55
2021/05/06 12:08:15;;;;;;;;;;;;;;;19.20;66.72;100632.78;4996084;28;1973;-55
2021/05/06 12:10:41;;;;;;;;;;;;;;;19.17;66.49;100646.44;4996177;28;1210;-55
2021/05/06 12:13:08;;;;;;;;;;;;;;;19.21;66.75;100641.66;4996041;28;1057;-55
2021/05/06 12:15:34;;;;;;;;;;;;;;;19.17;66.84;100640.25;4995948;28;1087;-55
2021/05/06 12:18:19;;;;;;;;;;;;;;;19.19;66.46;100646.31;4996298;28;1069;-55
2021/05/06 12:20:49;;;;;;;;;;;;;;;19.18;66.55;100653.50;4996229;28;1026;-54
2021/05/06 12:23:16;;;;;;;;;;;;;;;19.19;66.79;100662.41;4995975;28;1055;-55
2021/05/06 12:25:42;;;;;;;;;;;;;;;19.18;66.47;100653.50;4996221;28;1085;-55
2021/05/06 12:28:08;;;;;;;;;;;;;;;19.18;66.62;100660.69;4995983;28;1906;-54
2021/05/06 12:30:34;;;;;;;;;;;;;;;19.18;66.68;100658.00;4995764;28;1064;-55
2021/05/06 12:33:00;;;;;;;;;;;;;;;19.17;66.91;100645.59;4995941;28;1070;-55
2021/05/06 12:35:26;;;;;;;;;;;;;;;19.15;66.54;100640.38;4996056;28;1023;-55
2021/05/06 12:37:53;;;;;;;;;;;;;;;19.17;66.77;100648.28;4995175;28;1008;-55
2021/05/06 12:40:20;;;;;;;;;;;;;;;19.16;66.48;100644.75;4995942;28;1054;-55
2021/05/06 12:42:46;;;;;;;;;;;;;;;19.15;66.56;100650.25;4995916;28;991;-55
2021/05/06 12:45:24;;;;;;;;;;;;;;;19.12;66.66;100640.66;4995834;28;1051;-55
2021/05/06 12:47:50;;;;;;;;;;;;;;;19.13;66.99;100644.19;4995844;28;1973;-55
2021/05/06 12:50:18;;;;;;;;;;;;;;;19.13;66.80;100646.88;4995387;28;1079;-54
2021/05/06 12:52:45;;;;;;;;;;;;;;;19.11;67.02;100633.59;4995491;28;1024;-55
2021/05/06 12:55:18;;;;;;;;;;;;;;;19.11;66.48;100630.09;4995375;28;1115;-54
2021/05/06 12:57:46;;;;;;;;;;;;;;;19.12;66.81;100634.44;4995370;28;1127;-55
2021/05/06 13:00:16;;;;;;;;;;;;;;;19.13;66.71;100623.59;4996163;28;992;-54
2021/05/06 13:02:42;;;;;;;;;;;;;;;19.16;66.62;100642.09;4995293;28;1466;-55
2021/05/06 13:05:08;;;;;;;;;;;;;;;19.17;66.69;100641.06;4995613;28;1000;-55
2021/05/06 13:07:49;;;;;;;;;;;;;;;19.15;66.48;100634.16;4995043;28;1915;-53
2021/05/06 13:10:26;;;;;;;;;;;;;;;19.18;66.47;100641.91;4995430;28;1066;-54
2021/05/06 13:12:52;;;;;;;;;;;;;;;19.20;66.68;100634.59;4995311;28;1114;-55
2021/05/06 13:15:18;;;;;;;;;;;;;;;19.17;66.88;100646.44;4995526;28;991;-54
2021/05/06 13:17:44;;;;;;;;;;;;;;;19.17;66.64;100645.59;4995437;28;999;-54
2021/05/06 13:20:15;;;;;;;;;;;;;;;19.13;66.60;100647.72;4995220;28;1118;-55
2021/05/06 13:22:41;;;;;;;;;;;;;;;19.12;66.57;100637.13;4995190;28;1285;-54
2021/05/06 13:25:08;;;;;;;;;;;;;;;19.14;66.45;100630.66;4995454;28;1008;-54
2021/05/06 13:27:45;;;;;;;;;;;;;;;19.13;66.71;100630.78;4995066;28;1967;-54
2021/05/06 13:30:12;;;;;;;;;;;;;;;19.12;67.09;100637.13;4995037;28;1059;-54
2021/05/06 13:32:40;;;;;;;;;;;;;;;19.12;66.81;100626.41;4995047;28;1083;-54
2021/05/06 13:35:14;;;;;;;;;;;;;;;19.11;66.77;100628.25;4995466;28;1974;-54
2021/05/06 13:37:42;;;;;;;;;;;;;;;19.09;66.86;100632.91;4995357;28;983;-55
2021/05/06 13:40:09;;;;;;;;;;;;;;;19.08;66.97;100620.50;4995345;28;967;-55
2021/05/06 13:42:35;;;;;;;;;;;;;;;19.14;66.95;100613.69;4994963;28;1114;-55
2021/05/06 13:45:02;;;;;;;;;;;;;;;19.08;66.98;100631.22;4995152;28;1074;-55
2021/05/06 13:47:29;;;;;;;;;;;;;;;19.11;67.12;100630.09;4994835;28;1971;-55
2021/05/06 13:49:55;;;;;;;;;;;;;;;19.12;67.16;100631.75;4998002;28;1052;-55
2021/05/06 13:52:24;;;;;;;;;;;;;;;19.10;66.84;100633.72;4999053;28;1061;-54
2021/05/06 13:54:50;;;;;;;;;;;;;;;19.11;66.91;100640.81;4998939;28;1065;-55
2021/05/06 13:57:16;;;;;;;;;;;;;;;19.10;67.02;100649.81;4998911;28;975;-54
2021/05/06 13:59:42;;;;;;;;;;;;;;;19.10;67.25;100641.78;4998922;28;1003;-54
2021/05/06 14:02:08;;;;;;;;;;;;;;;19.08;66.87;100632.06;4998760;28;1496;-55
2021/05/06 14:04:35;;;;;;;;;;;;;;;19.09;66.91;100632.91;4998448;28;1056;-55
2021/05/06 14:07:01;;;;;;;;;;;;;;;19.08;66.85;100637.41;4998722;28;1205;-54
2021/05/06 14:09:27;;;;;;;;;;;;;;;19.08;67.01;100636.56;4998641;28;1977;-55
2021/05/06 14:11:53;;;;;;;;;;;;;;;19.06;67.25;100625.16;4998165;28;1111;-54
2021/05/06 14:14:19;;;;;;;;;;;;;;;19.05;66.95;100615.41;4998079;28;978;-55
2021/05/06 14:16:45;;;;;;;;;;;;;;;19.08;66.98;100631.22;4998276;28;1123;-55
2021/05/06 14:19:13;;;;;;;;;;;;;;;19.08;67.11;100624.00;4998491;28;1039;-55
2021/05/06 14:21:40;;;;;;;;;;;;;;;19.04;66.93;100624.44;4998196;28;1035;-54
2021/05/06 14:24:07;;;;;;;;;;;;;;;19.05;67.35;100629.63;4998184;28;1028;-55
2021/05/06 14:26:33;;;;;;;;;;;;;;;19.08;66.77;100618.66;4998136;28;1044;-55
2021/05/06 14:28:59;;;;;;;;;;;;;;;19.10;67.21;100641.78;4998337;28;1910;-55
2021/05/06 14:31:25;;;;;;;;;;;;;;;19.07;66.71;100624.97;4998203;28;1074;-54
2021/05/06 14:33:51;;;;;;;;;;;;;;;19.08;66.69;100637.41;4997937;28;1060;-54
2021/05/06 14:36:17;;;;;;;;;;;;;;;19.08;66.74;100642.78;4998206;28;972;-55
2021/05/06 14:38:44;;;;;;;;;;;;;;;19.11;66.92;100636.28;4998207;28;1079;-55
2021/05/06 14:41:12;;;;;;;;;;;;;;;19.08;66.82;100626.69;4998208;28;971;-55
2021/05/06 14:43:38;;;;;;;;;;;;;;;19.06;66.89;100630.50;4997652;28;1028;-54
2021/05/06 14:46:05;;;;;;;;;;;;;;;19.07;66.91;100645.59;4998063;28;1023;-54
2021/05/06 14:48:31;;;;;;;;;;;;;;;19.09;66.86;100635.56;4997939;28;1977;-54
2021/05/06 14:50:57;;;;;;;;;;;;;;;19.09;66.45;100646.28;4996699;28;1500;-54
2021/05/06 14:53:23;;;;;;;;;;;;;;;19.08;66.27;100631.22;5001650;28;1037;-54
2021/05/06 14:55:51;;;;;;;;;;;;;;;19.13;66.30;100638.81;4997539;28;1059;-56
2021/05/06 14:58:17;;;;;;;;;;;;;;;19.28;66.16;100640.13;4997442;28;1088;-55
2021/05/06 15:00:43;;;;;;;;;;;;;;;19.31;65.96;100636.31;4996745;28;1083;-54
2021/05/06 15:03:09;;;;;;;;;;;;;;;19.24;66.11;100641.38;4997466;28;1044;-55
2021/05/06 15:05:35;;;;;;;;;;;;;;;19.18;66.36;100648.16;4997744;28;1081;-54
2021/05/06 15:08:03;;;;;;;;;;;;;;;19.17;66.83;100640.25;4997570;28;1910;-55
2021/05/06 15:10:29;;;;;;;;;;;;;;;19.17;66.60;100633.03;4997256;28;1165;-54
2021/05/06 15:12:56;;;;;;;;;;;;;;;19.17;66.41;100637.56;4996099;28;983;-54
2021/05/06 15:15:22;;;;;;;;;;;;;;;19.16;66.49;100643.91;4996495;28;1043;-54
2021/05/06 15:17:51;;;;;;;;;;;;;;;19.15;66.55;100648.41;4996139;28;1131;-55
2021/05/06 15:20:17;;;;;;;;;;;;;;;19.14;66.36;100632.47;4996002;28;1985;-55
2021/05/06 15:22:43;;;;;;;;;;;;;;;19.13;66.64;100638.81;4995659;28;1555;-54
2021/05/06 15:25:11;;;;;;;;;;;;;;;19.13;66.63;100628.09;4993666;28;1213;-55
2021/05/06 15:27:37;;;;;;;;;;;;;;;19.13;66.94;100634.31;4994104;28;1935;-54